< < Back
Terminal Aerodrome Forecast


Current Version              Previous Versions:   1  2  3  4  5  6  7  8  9  

Terminal Aerodrome Forecast

344
FTUS44 KBMX 302342 RRA
TAFANB
TAF
KANB 302342Z 3100/3124 00000KT P6SM SKC
     FM311400 12002KT P6SM BKN040
     FM311700 22005KT P6SM VCTS BKN025CB=

Latest METAR

437
SAUS70 KWBC 311500 RRG
MTRANB
METAR KANB 311453Z AUTO 23003KT 10SM BKN041 BKN048 OVC060 16/08 A3010
RMK AO2 SLP192 T01610078 51003


USA.gov is the U.S. government's official web portal to all federal, state and local government web resources and services.